Terminal Aerodrome Forecast
Issued by NWS Sioux Falls, SD

Home | Current Version | Previous Version | Text Only | Print | Product List | Glossary On
Versions: 1 2 3 4 5 6 7 8 9 10 11 12 13 14
652
FTUS43 KFSD 080233 AAA
TAFHON
TAF AMD
KHON 080233Z 0803/0824 30019G27KT P6SM BKN030
      TEMPO 0803/0805 3SM -SN OVC025
     FM082100 31016G24KT P6SM SCT035=

USA.gov is the U.S. government's official web portal to all federal, state and local government web resources and services.